sensor_id;sensor_type;location;lat;lon;timestamp;P1;durP1;ratioP1;P2;durP2;ratioP2
48751;SDS011;34544;48.836;9.174;2023-06-22T00:01:05;11.10;;;7.72;;
48751;SDS011;34544;48.836;9.174;2023-06-22T00:03:31;8.55;;;7.68;;
48751;SDS011;34544;48.836;9.174;2023-06-22T00:05:57;10.05;;;8.32;;
48751;SDS011;34544;48.836;9.174;2023-06-22T00:08:22;14.85;;;8.57;;
48751;SDS011;34544;48.836;9.174;2023-06-22T00:10:48;9.65;;;8.20;;
48751;SDS011;34544;48.836;9.174;2023-06-22T00:13:14;10.38;;;8.23;;
48751;SDS011;34544;48.836;9.174;2023-06-22T00:15:40;11.00;;;8.70;;
48751;SDS011;34544;48.836;9.174;2023-06-22T00:18:07;9.63;;;8.18;;
48751;SDS011;34544;48.836;9.174;2023-06-22T00:20:33;17.80;;;9.00;;
48751;SDS011;34544;48.836;9.174;2023-06-22T00:22:59;11.88;;;8.07;;
48751;SDS011;34544;48.836;9.174;2023-06-22T00:25:25;8.95;;;8.05;;
48751;SDS011;34544;48.836;9.174;2023-06-22T00:27:51;9.77;;;7.93;;
48751;SDS011;34544;48.836;9.174;2023-06-22T00:30:17;8.55;;;7.70;;
48751;SDS011;34544;48.836;9.174;2023-06-22T00:32:44;11.13;;;7.97;;
48751;SDS011;34544;48.836;9.174;2023-06-22T00:35:12;13.23;;;8.52;;
48751;SDS011;34544;48.836;9.174;2023-06-22T00:37:38;9.68;;;7.63;;
48751;SDS011;34544;48.836;9.174;2023-06-22T00:40:07;11.38;;;9.32;;
48751;SDS011;34544;48.836;9.174;2023-06-22T00:42:36;10.13;;;7.65;;
48751;SDS011;34544;48.836;9.174;2023-06-22T00:45:02;10.23;;;7.68;;
48751;SDS011;34544;48.836;9.174;2023-06-22T00:47:28;8.98;;;7.93;;
48751;SDS011;34544;48.836;9.174;2023-06-22T00:49:54;14.25;;;10.13;;
48751;SDS011;34544;48.836;9.174;2023-06-22T00:52:20;10.02;;;8.23;;
48751;SDS011;34544;48.836;9.174;2023-06-22T00:54:52;10.30;;;8.77;;
48751;SDS011;34544;48.836;9.174;2023-06-22T00:57:19;12.85;;;9.75;;
48751;SDS011;34544;48.836;9.174;2023-06-22T00:59:47;10.63;;;7.95;;
48751;SDS011;34544;48.836;9.174;2023-06-22T01:02:13;9.82;;;8.82;;
48751;SDS011;34544;48.836;9.174;2023-06-22T01:04:39;13.38;;;9.32;;
48751;SDS011;34544;48.836;9.174;2023-06-22T01:09:49;19.67;;;10.02;;
48751;SDS011;34544;48.836;9.174;2023-06-22T01:12:24;10.85;;;9.45;;
48751;SDS011;34544;48.836;9.174;2023-06-22T01:14:58;13.88;;;8.77;;
48751;SDS011;34544;48.836;9.174;2023-06-22T01:17:37;10.88;;;8.18;;
48751;SDS011;34544;48.836;9.174;2023-06-22T01:20:09;12.88;;;8.80;;
48751;SDS011;34544;48.836;9.174;2023-06-22T01:25:43;11.52;;;8.68;;
48751;SDS011;34544;48.836;9.174;2023-06-22T01:28:36;13.38;;;8.18;;
48751;SDS011;34544;48.836;9.174;2023-06-22T01:31:14;9.85;;;8.23;;
48751;SDS011;34544;48.836;9.174;2023-06-22T01:33:53;12.15;;;8.60;;
48751;SDS011;34544;48.836;9.174;2023-06-22T01:36:22;13.48;;;9.45;;
48751;SDS011;34544;48.836;9.174;2023-06-22T01:38:49;9.43;;;8.02;;
48751;SDS011;34544;48.836;9.174;2023-06-22T01:41:18;16.58;;;9.30;;
48751;SDS011;34544;48.836;9.174;2023-06-22T01:43:45;9.95;;;8.25;;
48751;SDS011;34544;48.836;9.174;2023-06-22T01:46:12;10.73;;;9.57;;
48751;SDS011;34544;48.836;9.174;2023-06-22T01:48:39;13.45;;;9.45;;
48751;SDS011;34544;48.836;9.174;2023-06-22T01:51:05;11.77;;;8.68;;
48751;SDS011;34544;48.836;9.174;2023-06-22T01:53:31;9.43;;;8.38;;
48751;SDS011;34544;48.836;9.174;2023-06-22T01:55:57;12.63;;;9.55;;
48751;SDS011;34544;48.836;9.174;2023-06-22T01:58:25;11.52;;;9.00;;
48751;SDS011;34544;48.836;9.174;2023-06-22T02:01:15;13.50;;;8.57;;
48751;SDS011;34544;48.836;9.174;2023-06-22T02:03:42;14.07;;;8.57;;
48751;SDS011;34544;48.836;9.174;2023-06-22T02:06:16;13.60;;;9.05;;
48751;SDS011;34544;48.836;9.174;2023-06-22T02:08:49;11.38;;;8.20;;
48751;SDS011;34544;48.836;9.174;2023-06-22T02:11:19;11.38;;;8.30;;
48751;SDS011;34544;48.836;9.174;2023-06-22T02:13:46;9.98;;;8.43;;
48751;SDS011;34544;48.836;9.174;2023-06-22T02:16:13;15.02;;;9.75;;
48751;SDS011;34544;48.836;9.174;2023-06-22T02:18:47;13.75;;;9.73;;
48751;SDS011;34544;48.836;9.174;2023-06-22T02:21:17;12.95;;;10.15;;
48751;SDS011;34544;48.836;9.174;2023-06-22T02:23:45;10.45;;;9.45;;
48751;SDS011;34544;48.836;9.174;2023-06-22T02:26:11;14.25;;;9.98;;
48751;SDS011;34544;48.836;9.174;2023-06-22T02:28:37;15.38;;;8.88;;
48751;SDS011;34544;48.836;9.174;2023-06-22T02:31:03;11.48;;;9.77;;
48751;SDS011;34544;48.836;9.174;2023-06-22T02:33:29;14.93;;;11.82;;
48751;SDS011;34544;48.836;9.174;2023-06-22T02:35:54;14.18;;;9.43;;
48751;SDS011;34544;48.836;9.174;2023-06-22T02:38:21;12.32;;;9.90;;
48751;SDS011;34544;48.836;9.174;2023-06-22T02:40:50;12.20;;;10.40;;
48751;SDS011;34544;48.836;9.174;2023-06-22T02:43:16;16.05;;;10.00;;
48751;SDS011;34544;48.836;9.174;2023-06-22T02:45:43;14.38;;;9.63;;
48751;SDS011;34544;48.836;9.174;2023-06-22T02:48:10;11.25;;;10.07;;
48751;SDS011;34544;48.836;9.174;2023-06-22T02:50:36;15.05;;;10.02;;
48751;SDS011;34544;48.836;9.174;2023-06-22T02:53:03;14.30;;;9.93;;
48751;SDS011;34544;48.836;9.174;2023-06-22T02:55:33;12.30;;;8.65;;
48751;SDS011;34544;48.836;9.174;2023-06-22T02:57:59;14.20;;;9.13;;
48751;SDS011;34544;48.836;9.174;2023-06-22T03:00:27;11.65;;;10.43;;
48751;SDS011;34544;48.836;9.174;2023-06-22T03:02:56;14.65;;;10.20;;
48751;SDS011;34544;48.836;9.174;2023-06-22T03:05:23;12.23;;;9.38;;
48751;SDS011;34544;48.836;9.174;2023-06-22T03:07:49;15.07;;;10.13;;
48751;SDS011;34544;48.836;9.174;2023-06-22T03:10:15;14.25;;;10.23;;
48751;SDS011;34544;48.836;9.174;2023-06-22T03:12:42;17.98;;;10.30;;
48751;SDS011;34544;48.836;9.174;2023-06-22T03:15:09;16.13;;;10.52;;
48751;SDS011;34544;48.836;9.174;2023-06-22T03:17:36;11.15;;;10.00;;
48751;SDS011;34544;48.836;9.174;2023-06-22T03:20:07;11.68;;;9.93;;
48751;SDS011;34544;48.836;9.174;2023-06-22T03:22:36;12.05;;;9.73;;
48751;SDS011;34544;48.836;9.174;2023-06-22T03:25:02;11.82;;;9.43;;
48751;SDS011;34544;48.836;9.174;2023-06-22T03:27:28;12.18;;;9.20;;
48751;SDS011;34544;48.836;9.174;2023-06-22T03:29:54;10.63;;;9.45;;
48751;SDS011;34544;48.836;9.174;2023-06-22T03:32:22;14.02;;;10.32;;
48751;SDS011;34544;48.836;9.174;2023-06-22T03:34:47;10.73;;;9.13;;
48751;SDS011;34544;48.836;9.174;2023-06-22T03:37:13;14.05;;;8.48;;
48751;SDS011;34544;48.836;9.174;2023-06-22T03:39:40;10.80;;;9.35;;
48751;SDS011;34544;48.836;9.174;2023-06-22T03:42:07;13.48;;;8.93;;
48751;SDS011;34544;48.836;9.174;2023-06-22T03:44:33;14.75;;;8.80;;
48751;SDS011;34544;48.836;9.174;2023-06-22T03:47:01;14.63;;;8.57;;
48751;SDS011;34544;48.836;9.174;2023-06-22T03:49:28;11.55;;;9.40;;
48751;SDS011;34544;48.836;9.174;2023-06-22T03:51:53;16.02;;;9.15;;
48751;SDS011;34544;48.836;9.174;2023-06-22T03:54:19;11.57;;;8.88;;
48751;SDS011;34544;48.836;9.174;2023-06-22T03:56:45;13.57;;;9.68;;
48751;SDS011;34544;48.836;9.174;2023-06-22T03:59:11;11.63;;;9.52;;
48751;SDS011;34544;48.836;9.174;2023-06-22T04:01:36;13.73;;;8.90;;
48751;SDS011;34544;48.836;9.174;2023-06-22T04:04:02;17.20;;;10.45;;
48751;SDS011;34544;48.836;9.174;2023-06-22T04:06:27;12.13;;;9.85;;
48751;SDS011;34544;48.836;9.174;2023-06-22T04:08:53;17.38;;;9.10;;
48751;SDS011;34544;48.836;9.174;2023-06-22T04:11:19;14.02;;;9.80;;
48751;SDS011;34544;48.836;9.174;2023-06-22T04:13:44;11.88;;;9.90;;
48751;SDS011;34544;48.836;9.174;2023-06-22T04:16:10;13.32;;;9.35;;
48751;SDS011;34544;48.836;9.174;2023-06-22T04:18:36;14.68;;;9.82;;
48751;SDS011;34544;48.836;9.174;2023-06-22T04:21:01;12.70;;;9.77;;
48751;SDS011;34544;48.836;9.174;2023-06-22T04:23:28;12.30;;;9.65;;
48751;SDS011;34544;48.836;9.174;2023-06-22T04:25:53;13.95;;;9.38;;
48751;SDS011;34544;48.836;9.174;2023-06-22T04:28:21;13.73;;;10.27;;
48751;SDS011;34544;48.836;9.174;2023-06-22T04:30:47;10.60;;;8.95;;
48751;SDS011;34544;48.836;9.174;2023-06-22T04:33:13;10.25;;;8.75;;
48751;SDS011;34544;48.836;9.174;2023-06-22T04:35:39;11.48;;;9.20;;
48751;SDS011;34544;48.836;9.174;2023-06-22T04:38:06;13.77;;;10.38;;
48751;SDS011;34544;48.836;9.174;2023-06-22T04:40:32;14.82;;;9.13;;
48751;SDS011;34544;48.836;9.174;2023-06-22T04:42:58;10.60;;;9.38;;
48751;SDS011;34544;48.836;9.174;2023-06-22T04:45:27;12.52;;;8.55;;
48751;SDS011;34544;48.836;9.174;2023-06-22T04:47:54;16.92;;;9.13;;
48751;SDS011;34544;48.836;9.174;2023-06-22T04:50:20;14.40;;;10.02;;
48751;SDS011;34544;48.836;9.174;2023-06-22T04:52:47;14.60;;;9.07;;
48751;SDS011;34544;48.836;9.174;2023-06-22T04:55:13;11.07;;;9.40;;
48751;SDS011;34544;48.836;9.174;2023-06-22T04:57:43;12.07;;;10.77;;
48751;SDS011;34544;48.836;9.174;2023-06-22T05:00:17;13.25;;;9.32;;
48751;SDS011;34544;48.836;9.174;2023-06-22T05:02:45;14.68;;;10.73;;
48751;SDS011;34544;48.836;9.174;2023-06-22T05:05:11;18.92;;;9.75;;
48751;SDS011;34544;48.836;9.174;2023-06-22T05:07:44;16.08;;;10.82;;
48751;SDS011;34544;48.836;9.174;2023-06-22T05:10:13;14.02;;;9.57;;
48751;SDS011;34544;48.836;9.174;2023-06-22T05:12:39;11.70;;;9.13;;
48751;SDS011;34544;48.836;9.174;2023-06-22T05:15:07;13.85;;;9.07;;
48751;SDS011;34544;48.836;9.174;2023-06-22T05:17:34;10.15;;;8.93;;
48751;SDS011;34544;48.836;9.174;2023-06-22T05:20:00;12.23;;;8.60;;
48751;SDS011;34544;48.836;9.174;2023-06-22T05:22:27;11.45;;;9.43;;
48751;SDS011;34544;48.836;9.174;2023-06-22T05:24:53;11.73;;;8.30;;
48751;SDS011;34544;48.836;9.174;2023-06-22T05:27:19;11.85;;;8.43;;
48751;SDS011;34544;48.836;9.174;2023-06-22T05:29:45;17.42;;;10.82;;
48751;SDS011;34544;48.836;9.174;2023-06-22T05:32:11;12.35;;;8.75;;
48751;SDS011;34544;48.836;9.174;2023-06-22T05:34:37;10.25;;;7.30;;
48751;SDS011;34544;48.836;9.174;2023-06-22T05:37:03;11.30;;;8.50;;
48751;SDS011;34544;48.836;9.174;2023-06-22T05:39:29;16.63;;;9.15;;
48751;SDS011;34544;48.836;9.174;2023-06-22T05:41:55;9.02;;;7.63;;
48751;SDS011;34544;48.836;9.174;2023-06-22T05:44:21;10.45;;;7.82;;
48751;SDS011;34544;48.836;9.174;2023-06-22T05:46:46;9.98;;;8.45;;
48751;SDS011;34544;48.836;9.174;2023-06-22T05:49:13;14.15;;;8.43;;
48751;SDS011;34544;48.836;9.174;2023-06-22T05:51:39;11.85;;;8.80;;
48751;SDS011;34544;48.836;9.174;2023-06-22T05:54:05;11.80;;;8.30;;
48751;SDS011;34544;48.836;9.174;2023-06-22T05:56:33;15.13;;;7.63;;
48751;SDS011;34544;48.836;9.174;2023-06-22T05:58:58;13.40;;;8.13;;
48751;SDS011;34544;48.836;9.174;2023-06-22T06:01:24;10.65;;;8.40;;
48751;SDS011;34544;48.836;9.174;2023-06-22T06:03:51;12.45;;;8.35;;
48751;SDS011;34544;48.836;9.174;2023-06-22T06:06:18;11.40;;;8.43;;
48751;SDS011;34544;48.836;9.174;2023-06-22T06:08:46;11.38;;;7.50;;
48751;SDS011;34544;48.836;9.174;2023-06-22T06:11:11;11.65;;;8.68;;
48751;SDS011;34544;48.836;9.174;2023-06-22T06:13:37;9.38;;;7.28;;
48751;SDS011;34544;48.836;9.174;2023-06-22T06:16:03;10.57;;;8.07;;
48751;SDS011;34544;48.836;9.174;2023-06-22T06:18:28;16.73;;;8.45;;
48751;SDS011;34544;48.836;9.174;2023-06-22T06:20:54;10.60;;;7.63;;
48751;SDS011;34544;48.836;9.174;2023-06-22T06:23:20;9.88;;;8.38;;
48751;SDS011;34544;48.836;9.174;2023-06-22T06:25:45;15.25;;;8.90;;
48751;SDS011;34544;48.836;9.174;2023-06-22T06:28:11;12.20;;;8.02;;
48751;SDS011;34544;48.836;9.174;2023-06-22T06:30:36;10.05;;;8.02;;
48751;SDS011;34544;48.836;9.174;2023-06-22T06:33:02;9.65;;;7.15;;
48751;SDS011;34544;48.836;9.174;2023-06-22T06:35:33;9.13;;;8.00;;
48751;SDS011;34544;48.836;9.174;2023-06-22T06:38:00;10.93;;;8.10;;
48751;SDS011;34544;48.836;9.174;2023-06-22T06:40:26;11.85;;;8.85;;
48751;SDS011;34544;48.836;9.174;2023-06-22T06:42:51;12.10;;;8.13;;
48751;SDS011;34544;48.836;9.174;2023-06-22T06:47:44;11.13;;;8.27;;
48751;SDS011;34544;48.836;9.174;2023-06-22T06:50:10;9.73;;;7.20;;
48751;SDS011;34544;48.836;9.174;2023-06-22T06:52:36;11.07;;;8.02;;
48751;SDS011;34544;48.836;9.174;2023-06-22T06:55:02;13.18;;;7.63;;
48751;SDS011;34544;48.836;9.174;2023-06-22T06:57:32;9.60;;;8.23;;
48751;SDS011;34544;48.836;9.174;2023-06-22T06:59:58;11.35;;;8.30;;
48751;SDS011;34544;48.836;9.174;2023-06-22T07:02:25;9.40;;;7.10;;
48751;SDS011;34544;48.836;9.174;2023-06-22T07:04:52;13.02;;;7.63;;
48751;SDS011;34544;48.836;9.174;2023-06-22T07:07:20;10.48;;;6.95;;
48751;SDS011;34544;48.836;9.174;2023-06-22T07:09:46;8.05;;;6.50;;
48751;SDS011;34544;48.836;9.174;2023-06-22T07:12:12;10.00;;;7.68;;
48751;SDS011;34544;48.836;9.174;2023-06-22T07:14:38;9.20;;;7.03;;
48751;SDS011;34544;48.836;9.174;2023-06-22T07:17:04;11.25;;;6.38;;
48751;SDS011;34544;48.836;9.174;2023-06-22T07:19:29;9.70;;;6.05;;
48751;SDS011;34544;48.836;9.174;2023-06-22T07:21:56;10.13;;;6.65;;
48751;SDS011;34544;48.836;9.174;2023-06-22T07:24:22;14.43;;;6.30;;
48751;SDS011;34544;48.836;9.174;2023-06-22T07:26:49;13.95;;;5.82;;
48751;SDS011;34544;48.836;9.174;2023-06-22T07:29:19;6.57;;;5.88;;
48751;SDS011;34544;48.836;9.174;2023-06-22T07:31:46;9.95;;;6.00;;
48751;SDS011;34544;48.836;9.174;2023-06-22T07:34:13;11.07;;;5.25;;
48751;SDS011;34544;48.836;9.174;2023-06-22T07:36:38;8.02;;;5.38;;
48751;SDS011;34544;48.836;9.174;2023-06-22T07:39:04;8.13;;;4.82;;
48751;SDS011;34544;48.836;9.174;2023-06-22T07:41:30;7.13;;;5.32;;
48751;SDS011;34544;48.836;9.174;2023-06-22T07:43:56;6.65;;;4.82;;
48751;SDS011;34544;48.836;9.174;2023-06-22T07:46:22;8.05;;;5.38;;
48751;SDS011;34544;48.836;9.174;2023-06-22T07:48:48;6.43;;;5.05;;
48751;SDS011;34544;48.836;9.174;2023-06-22T07:51:14;6.75;;;4.97;;
48751;SDS011;34544;48.836;9.174;2023-06-22T07:53:43;10.25;;;4.75;;
48751;SDS011;34544;48.836;9.174;2023-06-22T07:56:10;7.13;;;4.78;;
48751;SDS011;34544;48.836;9.174;2023-06-22T07:58:36;7.22;;;4.60;;
48751;SDS011;34544;48.836;9.174;2023-06-22T08:01:02;7.40;;;4.55;;
48751;SDS011;34544;48.836;9.174;2023-06-22T08:03:28;6.85;;;4.80;;
48751;SDS011;34544;48.836;9.174;2023-06-22T08:05:54;8.55;;;5.60;;
48751;SDS011;34544;48.836;9.174;2023-06-22T08:08:20;7.10;;;3.83;;
48751;SDS011;34544;48.836;9.174;2023-06-22T08:10:46;10.07;;;4.57;;
48751;SDS011;34544;48.836;9.174;2023-06-22T08:13:11;7.93;;;5.07;;
48751;SDS011;34544;48.836;9.174;2023-06-22T08:15:37;7.80;;;4.32;;
48751;SDS011;34544;48.836;9.174;2023-06-22T08:18:03;6.32;;;4.55;;
48751;SDS011;34544;48.836;9.174;2023-06-22T08:20:28;9.98;;;5.05;;
48751;SDS011;34544;48.836;9.174;2023-06-22T08:22:55;9.40;;;5.03;;
48751;SDS011;34544;48.836;9.174;2023-06-22T08:25:22;7.97;;;4.40;;
48751;SDS011;34544;48.836;9.174;2023-06-22T08:27:48;7.57;;;4.07;;
48751;SDS011;34544;48.836;9.174;2023-06-22T08:30:14;5.20;;;4.22;;
48751;SDS011;34544;48.836;9.174;2023-06-22T08:32:40;9.32;;;4.55;;
48751;SDS011;34544;48.836;9.174;2023-06-22T08:35:06;6.90;;;4.60;;
48751;SDS011;34544;48.836;9.174;2023-06-22T08:37:34;7.35;;;4.90;;
48751;SDS011;34544;48.836;9.174;2023-06-22T08:40:01;5.07;;;4.38;;
48751;SDS011;34544;48.836;9.174;2023-06-22T08:42:40;6.18;;;4.28;;
48751;SDS011;34544;48.836;9.174;2023-06-22T08:45:06;7.65;;;4.00;;
48751;SDS011;34544;48.836;9.174;2023-06-22T08:47:32;7.65;;;4.50;;
48751;SDS011;34544;48.836;9.174;2023-06-22T08:49:58;6.45;;;4.72;;
48751;SDS011;34544;48.836;9.174;2023-06-22T08:52:24;7.90;;;4.65;;
48751;SDS011;34544;48.836;9.174;2023-06-22T08:54:49;7.53;;;4.47;;
48751;SDS011;34544;48.836;9.174;2023-06-22T08:57:16;7.28;;;5.18;;
48751;SDS011;34544;48.836;9.174;2023-06-22T08:59:42;5.20;;;4.45;;
48751;SDS011;34544;48.836;9.174;2023-06-22T09:02:08;8.40;;;4.88;;
48751;SDS011;34544;48.836;9.174;2023-06-22T09:04:34;8.93;;;4.35;;
48751;SDS011;34544;48.836;9.174;2023-06-22T09:07:00;7.05;;;4.55;;
48751;SDS011;34544;48.836;9.174;2023-06-22T09:09:26;12.32;;;4.60;;
48751;SDS011;34544;48.836;9.174;2023-06-22T09:11:52;10.25;;;4.88;;
48751;SDS011;34544;48.836;9.174;2023-06-22T09:14:17;8.63;;;4.80;;
48751;SDS011;34544;48.836;9.174;2023-06-22T09:16:43;8.23;;;4.50;;
48751;SDS011;34544;48.836;9.174;2023-06-22T09:19:09;6.40;;;3.90;;
48751;SDS011;34544;48.836;9.174;2023-06-22T09:21:35;8.93;;;4.88;;
48751;SDS011;34544;48.836;9.174;2023-06-22T09:24:01;9.07;;;4.55;;
48751;SDS011;34544;48.836;9.174;2023-06-22T09:26:27;5.60;;;4.82;;
48751;SDS011;34544;48.836;9.174;2023-06-22T09:28:52;6.10;;;4.68;;
48751;SDS011;34544;48.836;9.174;2023-06-22T09:31:18;8.68;;;4.57;;
48751;SDS011;34544;48.836;9.174;2023-06-22T09:33:50;8.27;;;3.92;;
48751;SDS011;34544;48.836;9.174;2023-06-22T09:36:19;7.70;;;4.55;;
48751;SDS011;34544;48.836;9.174;2023-06-22T09:38:46;7.65;;;4.35;;
48751;SDS011;34544;48.836;9.174;2023-06-22T09:41:12;5.78;;;4.43;;
48751;SDS011;34544;48.836;9.174;2023-06-22T09:43:38;16.00;;;6.07;;
48751;SDS011;34544;48.836;9.174;2023-06-22T09:46:03;12.18;;;5.30;;
48751;SDS011;34544;48.836;9.174;2023-06-22T09:48:29;7.93;;;4.80;;
48751;SDS011;34544;48.836;9.174;2023-06-22T09:50:55;11.13;;;4.80;;
48751;SDS011;34544;48.836;9.174;2023-06-22T09:53:21;8.77;;;4.47;;
48751;SDS011;34544;48.836;9.174;2023-06-22T09:55:47;7.95;;;4.38;;
48751;SDS011;34544;48.836;9.174;2023-06-22T09:58:13;5.40;;;4.90;;
48751;SDS011;34544;48.836;9.174;2023-06-22T10:00:38;8.75;;;4.60;;
48751;SDS011;34544;48.836;9.174;2023-06-22T10:03:06;7.22;;;4.13;;
48751;SDS011;34544;48.836;9.174;2023-06-22T10:05:31;10.13;;;4.35;;
48751;SDS011;34544;48.836;9.174;2023-06-22T10:07:57;11.23;;;5.20;;
48751;SDS011;34544;48.836;9.174;2023-06-22T10:10:23;8.07;;;4.78;;
48751;SDS011;34544;48.836;9.174;2023-06-22T10:12:55;6.28;;;4.88;;
48751;SDS011;34544;48.836;9.174;2023-06-22T10:15:22;7.57;;;4.38;;
48751;SDS011;34544;48.836;9.174;2023-06-22T10:17:48;7.13;;;5.00;;
48751;SDS011;34544;48.836;9.174;2023-06-22T10:20:14;7.40;;;4.25;;
48751;SDS011;34544;48.836;9.174;2023-06-22T10:22:40;8.80;;;4.88;;
48751;SDS011;34544;48.836;9.174;2023-06-22T10:25:07;10.82;;;5.25;;
48751;SDS011;34544;48.836;9.174;2023-06-22T10:27:33;10.93;;;4.95;;
48751;SDS011;34544;48.836;9.174;2023-06-22T10:29:59;5.55;;;4.43;;
48751;SDS011;34544;48.836;9.174;2023-06-22T10:32:25;7.55;;;4.95;;
48751;SDS011;34544;48.836;9.174;2023-06-22T10:34:50;10.77;;;5.80;;
48751;SDS011;34544;48.836;9.174;2023-06-22T10:37:16;11.00;;;6.70;;
48751;SDS011;34544;48.836;9.174;2023-06-22T10:39:42;9.82;;;5.65;;
48751;SDS011;34544;48.836;9.174;2023-06-22T10:42:07;10.10;;;4.82;;
48751;SDS011;34544;48.836;9.174;2023-06-22T10:44:33;9.10;;;4.68;;
48751;SDS011;34544;48.836;9.174;2023-06-22T10:46:58;6.38;;;4.88;;
48751;SDS011;34544;48.836;9.174;2023-06-22T10:49:24;8.32;;;4.88;;
48751;SDS011;34544;48.836;9.174;2023-06-22T10:51:50;12.65;;;4.38;;
48751;SDS011;34544;48.836;9.174;2023-06-22T10:54:15;9.52;;;5.35;;
48751;SDS011;34544;48.836;9.174;2023-06-22T10:56:43;6.50;;;4.53;;
48751;SDS011;34544;48.836;9.174;2023-06-22T10:59:09;7.93;;;4.65;;
48751;SDS011;34544;48.836;9.174;2023-06-22T11:01:34;13.13;;;6.07;;
48751;SDS011;34544;48.836;9.174;2023-06-22T11:04:02;10.60;;;5.20;;
48751;SDS011;34544;48.836;9.174;2023-06-22T11:06:28;10.68;;;4.63;;
48751;SDS011;34544;48.836;9.174;2023-06-22T11:08:53;10.15;;;4.88;;
48751;SDS011;34544;48.836;9.174;2023-06-22T11:11:19;8.95;;;4.72;;
48751;SDS011;34544;48.836;9.174;2023-06-22T11:13:45;10.07;;;4.78;;
48751;SDS011;34544;48.836;9.174;2023-06-22T11:16:10;9.65;;;5.30;;
48751;SDS011;34544;48.836;9.174;2023-06-22T11:18:36;8.25;;;4.80;;
48751;SDS011;34544;48.836;9.174;2023-06-22T11:21:02;11.93;;;5.63;;
48751;SDS011;34544;48.836;9.174;2023-06-22T11:23:28;5.15;;;4.50;;
48751;SDS011;34544;48.836;9.174;2023-06-22T11:25:54;13.32;;;5.90;;
48751;SDS011;34544;48.836;9.174;2023-06-22T11:28:20;9.13;;;4.97;;
48751;SDS011;34544;48.836;9.174;2023-06-22T11:30:45;11.77;;;4.78;;
48751;SDS011;34544;48.836;9.174;2023-06-22T11:33:11;10.95;;;5.30;;
48751;SDS011;34544;48.836;9.174;2023-06-22T11:35:37;15.27;;;5.75;;
48751;SDS011;34544;48.836;9.174;2023-06-22T11:38:02;11.00;;;5.88;;
48751;SDS011;34544;48.836;9.174;2023-06-22T11:40:29;8.85;;;4.40;;
48751;SDS011;34544;48.836;9.174;2023-06-22T11:42:55;12.35;;;5.03;;
48751;SDS011;34544;48.836;9.174;2023-06-22T11:45:21;14.45;;;5.30;;
48751;SDS011;34544;48.836;9.174;2023-06-22T11:47:46;8.57;;;5.10;;
48751;SDS011;34544;48.836;9.174;2023-06-22T11:50:12;12.15;;;5.25;;
48751;SDS011;34544;48.836;9.174;2023-06-22T11:52:38;7.25;;;5.47;;
48751;SDS011;34544;48.836;9.174;2023-06-22T11:55:04;7.10;;;5.07;;
48751;SDS011;34544;48.836;9.174;2023-06-22T11:57:32;13.40;;;5.32;;
48751;SDS011;34544;48.836;9.174;2023-06-22T11:59:59;7.57;;;4.43;;
48751;SDS011;34544;48.836;9.174;2023-06-22T12:02:25;10.80;;;5.07;;
48751;SDS011;34544;48.836;9.174;2023-06-22T12:04:50;14.30;;;6.30;;
48751;SDS011;34544;48.836;9.174;2023-06-22T12:07:17;10.80;;;5.13;;
48751;SDS011;34544;48.836;9.174;2023-06-22T12:09:46;11.85;;;5.53;;
48751;SDS011;34544;48.836;9.174;2023-06-22T12:12:12;11.48;;;5.70;;
48751;SDS011;34544;48.836;9.174;2023-06-22T12:14:37;11.40;;;5.35;;
48751;SDS011;34544;48.836;9.174;2023-06-22T12:17:03;11.93;;;5.47;;
48751;SDS011;34544;48.836;9.174;2023-06-22T12:19:29;11.25;;;6.03;;
48751;SDS011;34544;48.836;9.174;2023-06-22T12:21:54;12.63;;;5.93;;
48751;SDS011;34544;48.836;9.174;2023-06-22T12:24:20;11.40;;;5.63;;
48751;SDS011;34544;48.836;9.174;2023-06-22T12:26:45;18.73;;;5.85;;
48751;SDS011;34544;48.836;9.174;2023-06-22T12:29:11;15.57;;;6.65;;
48751;SDS011;34544;48.836;9.174;2023-06-22T12:31:36;11.95;;;5.13;;
48751;SDS011;34544;48.836;9.174;2023-06-22T12:34:04;8.30;;;5.35;;
48751;SDS011;34544;48.836;9.174;2023-06-22T12:36:30;8.07;;;4.90;;
48751;SDS011;34544;48.836;9.174;2023-06-22T12:38:55;13.18;;;5.38;;
48751;SDS011;34544;48.836;9.174;2023-06-22T12:41:21;10.23;;;5.32;;
48751;SDS011;34544;48.836;9.174;2023-06-22T12:43:47;12.20;;;5.63;;
48751;SDS011;34544;48.836;9.174;2023-06-22T12:46:12;11.13;;;5.75;;
48751;SDS011;34544;48.836;9.174;2023-06-22T12:48:38;14.35;;;5.57;;
48751;SDS011;34544;48.836;9.174;2023-06-22T12:51:07;8.63;;;4.72;;
48751;SDS011;34544;48.836;9.174;2023-06-22T12:53:34;8.43;;;5.03;;
48751;SDS011;34544;48.836;9.174;2023-06-22T12:56:00;18.05;;;6.25;;
48751;SDS011;34544;48.836;9.174;2023-06-22T12:58:25;12.90;;;5.70;;
48751;SDS011;34544;48.836;9.174;2023-06-22T13:00:51;6.68;;;4.70;;
48751;SDS011;34544;48.836;9.174;2023-06-22T13:03:17;11.60;;;6.30;;
48751;SDS011;34544;48.836;9.174;2023-06-22T13:05:42;10.43;;;6.15;;
48751;SDS011;34544;48.836;9.174;2023-06-22T13:08:08;18.17;;;6.30;;
48751;SDS011;34544;48.836;9.174;2023-06-22T13:10:33;17.25;;;5.43;;
48751;SDS011;34544;48.836;9.174;2023-06-22T13:12:59;11.52;;;4.93;;
48751;SDS011;34544;48.836;9.174;2023-06-22T13:15:28;12.23;;;6.13;;
48751;SDS011;34544;48.836;9.174;2023-06-22T13:17:55;13.45;;;5.60;;
48751;SDS011;34544;48.836;9.174;2023-06-22T13:20:20;11.85;;;5.10;;
48751;SDS011;34544;48.836;9.174;2023-06-22T13:22:46;11.13;;;5.47;;
48751;SDS011;34544;48.836;9.174;2023-06-22T13:25:12;8.10;;;4.97;;
48751;SDS011;34544;48.836;9.174;2023-06-22T13:27:40;13.50;;;5.82;;
48751;SDS011;34544;48.836;9.174;2023-06-22T13:30:07;11.20;;;5.05;;
48751;SDS011;34544;48.836;9.174;2023-06-22T13:32:33;15.68;;;5.95;;
48751;SDS011;34544;48.836;9.174;2023-06-22T13:34:59;11.30;;;5.20;;
48751;SDS011;34544;48.836;9.174;2023-06-22T13:37:25;11.27;;;5.35;;
48751;SDS011;34544;48.836;9.174;2023-06-22T13:39:51;11.75;;;5.75;;
48751;SDS011;34544;48.836;9.174;2023-06-22T13:42:17;13.40;;;5.82;;
48751;SDS011;34544;48.836;9.174;2023-06-22T13:44:42;14.27;;;4.97;;
48751;SDS011;34544;48.836;9.174;2023-06-22T13:47:08;10.18;;;5.38;;
48751;SDS011;34544;48.836;9.174;2023-06-22T13:49:34;16.70;;;5.80;;
48751;SDS011;34544;48.836;9.174;2023-06-22T13:52:00;16.20;;;6.60;;
48751;SDS011;34544;48.836;9.174;2023-06-22T13:54:25;14.30;;;6.78;;
48751;SDS011;34544;48.836;9.174;2023-06-22T13:56:51;11.30;;;5.15;;
48751;SDS011;34544;48.836;9.174;2023-06-22T13:59:17;10.10;;;5.43;;
48751;SDS011;34544;48.836;9.174;2023-06-22T14:01:44;9.10;;;5.22;;
48751;SDS011;34544;48.836;9.174;2023-06-22T14:04:10;12.95;;;4.85;;
48751;SDS011;34544;48.836;9.174;2023-06-22T14:06:36;11.48;;;4.68;;
48751;SDS011;34544;48.836;9.174;2023-06-22T14:09:02;10.93;;;5.07;;
48751;SDS011;34544;48.836;9.174;2023-06-22T14:11:28;9.63;;;5.00;;
48751;SDS011;34544;48.836;9.174;2023-06-22T14:13:54;13.38;;;4.95;;
48751;SDS011;34544;48.836;9.174;2023-06-22T14:16:19;12.35;;;5.72;;
48751;SDS011;34544;48.836;9.174;2023-06-22T14:18:45;18.30;;;5.93;;
48751;SDS011;34544;48.836;9.174;2023-06-22T14:21:10;14.63;;;5.80;;
48751;SDS011;34544;48.836;9.174;2023-06-22T14:23:36;16.58;;;4.50;;
48751;SDS011;34544;48.836;9.174;2023-06-22T14:26:03;13.07;;;4.55;;
48751;SDS011;34544;48.836;9.174;2023-06-22T14:28:28;11.13;;;5.68;;
48751;SDS011;34544;48.836;9.174;2023-06-22T14:30:54;12.48;;;5.13;;
48751;SDS011;34544;48.836;9.174;2023-06-22T14:33:21;11.93;;;4.90;;
48751;SDS011;34544;48.836;9.174;2023-06-22T14:35:47;9.52;;;5.00;;
48751;SDS011;34544;48.836;9.174;2023-06-22T14:38:12;15.13;;;5.22;;
48751;SDS011;34544;48.836;9.174;2023-06-22T14:40:38;13.48;;;6.05;;
48751;SDS011;34544;48.836;9.174;2023-06-22T14:43:04;11.55;;;4.50;;